Time;durP1;ratioP1;P1;durP2;ratioP2;P2;SDS_P1;SDS_P2;PMS_P1;PMS_P2;Temp;Humidity;BMP_temperature;BMP_pressure;BME280_temperature;BME280_humidity;BME280_pressure;Samples;Min_cycle;Max_cycle;Signal;HPM_P1;HPM_P2
2022/01/30 00:01:30;;;;;;;1.07;0.97;;;9.60;99.90;;;;;;5014494;28;20638;-59
2022/01/30 00:03:57;;;;;;;1.87;1.10;;;9.60;99.90;;;;;;5014727;28;20238;-60
2022/01/30 00:06:24;;;;;;;0.90;0.70;;;9.60;99.90;;;;;;5014629;28;20229;-59
2022/01/30 00:08:50;;;;;;;0.70;0.70;;;9.60;99.90;;;;;;5014742;28;20234;-60
2022/01/30 00:11:21;;;;;;;0.63;0.40;;;9.60;99.90;;;;;;5014488;28;20242;-62
2022/01/30 00:13:48;;;;;;;1.00;0.70;;;9.60;99.90;;;;;;5014390;28;20229;-59
2022/01/30 00:16:18;;;;;;;0.50;0.50;;;9.60;99.90;;;;;;5014454;28;20298;-61
2022/01/30 00:18:54;;;;;;;1.27;0.80;;;9.60;99.90;;;;;;5014252;28;20207;-61
2022/01/30 00:21:32;;;;;;;0.63;0.47;;;9.60;99.90;;;;;;5014141;28;20237;-60
2022/01/30 00:24:03;;;;;;;1.23;0.60;;;9.60;99.90;;;;;;5013822;28;20229;-59
2022/01/30 00:26:33;;;;;;;1.70;0.60;;;9.60;99.90;;;;;;5014278;28;20691;-60
2022/01/30 00:29:00;;;;;;;0.40;0.40;;;9.60;99.90;;;;;;5014859;28;20242;-64
2022/01/30 00:31:28;;;;;;;0.50;0.50;;;9.60;99.90;;;;;;5014552;28;20235;-60
2022/01/30 00:33:55;;;;;;;0.30;0.30;;;9.60;99.90;;;;;;5014050;28;20221;-60
2022/01/30 00:36:22;;;;;;;0.70;0.50;;;9.60;99.90;;;;;;5014259;28;20207;-61
2022/01/30 00:38:49;;;;;;;0.60;0.53;;;9.60;99.90;;;;;;5014067;28;20587;-58
2022/01/30 00:41:16;;;;;;;0.87;0.50;;;9.60;99.90;;;;;;5014057;28;20227;-60
2022/01/30 00:43:43;;;;;;;0.73;0.73;;;9.60;99.90;;;;;;5013941;28;20682;-61
2022/01/30 00:46:09;;;;;;;0.83;0.47;;;9.60;99.90;;;;;;5014070;28;20231;-59
2022/01/30 00:48:37;;;;;;;0.83;0.30;;;9.50;99.90;;;;;;4994288;28;20254;-60
2022/01/30 00:51:04;;;;;;;0.70;0.60;;;9.60;99.90;;;;;;4994123;28;20231;-61
2022/01/30 00:53:31;;;;;;;1.73;0.50;;;9.60;99.90;;;;;;4993174;28;20672;-58
2022/01/30 00:55:57;;;;;;;0.50;0.50;;;9.50;99.90;;;;;;4994342;28;20207;-59
2022/01/30 00:58:24;;;;;;;0.50;0.40;;;9.60;99.90;;;;;;4994548;28;20211;-59
2022/01/30 01:00:51;;;;;;;1.57;0.67;;;9.60;99.90;;;;;;4994233;28;20459;-59
2022/01/30 01:03:17;;;;;;;0.50;0.50;;;9.60;99.90;;;;;;4994299;28;20219;-59
2022/01/30 01:05:46;;;;;;;0.93;0.70;;;9.60;99.90;;;;;;4993848;28;20235;-59
2022/01/30 01:08:17;;;;;;;1.33;0.80;;;9.60;99.90;;;;;;4994020;28;20631;-59
2022/01/30 01:10:48;;;;;;;1.00;0.90;;;9.60;99.90;;;;;;4994163;28;20250;-58
2022/01/30 01:13:43;;;;;;;0.80;0.80;;;9.60;99.90;;;;;;4994207;28;20218;-58
2022/01/30 01:24:35;;;;;;;1.47;1.20;;;9.60;99.90;;;;;;4993873;28;20606;-58
2022/01/30 01:27:02;;;;;;;1.13;0.90;;;9.60;99.90;;;;;;4993664;28;20228;-58
2022/01/30 01:29:29;;;;;;;1.23;0.83;;;9.60;99.90;;;;;;4993891;28;20204;-59
2022/01/30 01:31:56;;;;;;;3.20;1.80;;;9.50;99.90;;;;;;4993790;28;20227;-58
2022/01/30 01:34:31;;;;;;;2.03;1.10;;;9.50;99.90;;;;;;4993481;28;20214;-58
2022/01/30 01:36:59;;;;;;;1.23;0.97;;;9.60;99.90;;;;;;4993665;28;20258;-58
2022/01/30 01:39:26;;;;;;;0.97;0.80;;;9.60;99.90;;;;;;4993401;28;20211;-58
2022/01/30 01:41:53;;;;;;;3.60;1.40;;;9.50;99.90;;;;;;4993707;28;20235;-59
2022/01/30 01:44:28;;;;;;;1.80;1.00;;;9.50;99.90;;;;;;4993255;28;20220;-58
2022/01/30 01:46:55;;;;;;;1.43;1.23;;;9.40;99.90;;;;;;4993609;28;20227;-59
2022/01/30 01:49:28;;;;;;;0.97;0.87;;;9.40;99.90;;;;;;4993344;28;20672;-59
2022/01/30 01:52:14;;;;;;;2.77;1.20;;;9.50;99.90;;;;;;4993271;28;20232;-59
2022/01/30 01:54:43;;;;;;;1.87;1.40;;;9.50;99.90;;;;;;4993375;28;20207;-59
2022/01/30 01:57:09;;;;;;;2.53;1.57;;;9.50;99.90;;;;;;4993268;28;20203;-59
2022/01/30 01:59:37;;;;;;;1.83;1.20;;;9.50;99.90;;;;;;4993324;28;20212;-60
2022/01/30 02:02:04;;;;;;;2.90;1.50;;;9.60;99.90;;;;;;4993335;28;20232;-59
2022/01/30 02:04:31;;;;;;;2.00;1.80;;;9.70;99.90;;;;;;4992310;28;20203;-59
2022/01/30 02:07:16;;;;;;;1.43;1.27;;;9.60;99.90;;;;;;4993128;28;20699;-59
2022/01/30 02:09:44;;;;;;;1.53;1.33;;;9.60;99.90;;;;;;4993181;28;20242;-60
2022/01/30 02:12:17;;;;;;;1.30;1.17;;;9.70;99.90;;;;;;4992848;28;20242;-58
2022/01/30 02:14:50;;;;;;;1.10;1.00;;;9.70;99.90;;;;;;4992850;28;20250;-59
2022/01/30 02:25:38;;;;;;;2.73;0.50;;;9.40;99.90;;;;;;4992605;28;20210;-58
2022/01/30 02:28:10;;;;;;;0.83;0.70;;;9.20;99.90;;;;;;4992808;28;20679;-59
2022/01/30 02:30:41;;;;;;;0.60;0.60;;;9.10;99.90;;;;;;4992846;28;20227;-58
2022/01/30 02:33:08;;;;;;;3.83;0.63;;;9.10;99.90;;;;;;4992956;28;20286;-59
2022/01/30 02:35:34;;;;;;;0.87;0.70;;;9.10;99.90;;;;;;4992630;28;20211;-59
2022/01/30 02:38:02;;;;;;;1.50;1.00;;;9.10;99.90;;;;;;4992965;28;20215;-59
2022/01/30 02:40:33;;;;;;;0.73;0.60;;;9.10;99.90;;;;;;4992799;28;20203;-59
2022/01/30 02:42:59;;;;;;;0.87;0.53;;;9.10;99.90;;;;;;4992756;28;20315;-58
2022/01/30 02:45:30;;;;;;;0.87;0.60;;;9.10;99.90;;;;;;4992390;28;20214;-59
2022/01/30 02:48:11;;;;;;;1.00;0.80;;;9.10;99.90;;;;;;4992496;28;20235;-59
2022/01/30 02:50:49;;;;;;;1.13;0.80;;;9.30;99.90;;;;;;4992789;28;20204;-58
2022/01/30 02:53:18;;;;;;;0.67;0.60;;;9.30;99.90;;;;;;4992760;28;20351;-58
2022/01/30 02:55:44;;;;;;;1.07;0.80;;;9.30;99.90;;;;;;4992519;28;20207;-59
2022/01/30 02:58:11;;;;;;;1.00;0.70;;;9.20;99.90;;;;;;4992836;28;20234;-59
2022/01/30 03:00:38;;;;;;;1.17;1.03;;;9.20;99.90;;;;;;4992441;28;20211;-58
2022/01/30 03:03:05;;;;;;;2.67;1.00;;;9.20;99.90;;;;;;4992780;28;20227;-60
2022/01/30 03:05:31;;;;;;;1.77;1.00;;;9.20;99.90;;;;;;4992395;28;20212;-60
2022/01/30 03:07:58;;;;;;;1.70;1.10;;;9.20;99.90;;;;;;4992333;28;20235;-58
2022/01/30 03:10:26;;;;;;;1.20;1.00;;;9.30;99.90;;;;;;4992638;28;20261;-60
2022/01/30 03:12:53;;;;;;;1.20;1.10;;;9.40;99.90;;;;;;4992420;28;20235;-59
2022/01/30 03:15:19;;;;;;;1.40;1.10;;;9.20;99.90;;;;;;4992222;28;20215;-59
2022/01/30 03:17:46;;;;;;;1.77;1.30;;;9.20;99.90;;;;;;4995238;28;20746;-59
2022/01/30 03:20:13;;;;;;;2.60;1.20;;;9.20;99.90;;;;;;4996193;28;20617;-59
2022/01/30 03:22:40;;;;;;;3.60;1.40;;;9.20;99.90;;;;;;4996047;28;20642;-59
2022/01/30 03:25:07;;;;;;;1.90;1.30;;;9.20;99.90;;;;;;4995995;28;20258;-59
2022/01/30 03:27:35;;;;;;;1.93;1.33;;;9.10;99.90;;;;;;4995975;28;20223;-60
2022/01/30 03:30:07;;;;;;;1.10;1.00;;;9.10;99.90;;;;;;4996204;28;20635;-60
2022/01/30 03:32:35;;;;;;;1.40;1.30;;;9.10;99.90;;;;;;4996566;28;20231;-59
2022/01/30 03:35:01;;;;;;;3.47;1.03;;;9.20;99.90;;;;;;4996173;28;20207;-60
2022/01/30 03:37:28;;;;;;;2.57;1.50;;;9.20;99.90;;;;;;4995969;28;20258;-59
2022/01/30 03:39:55;;;;;;;1.90;1.30;;;9.20;99.90;;;;;;4995916;28;20212;-59
2022/01/30 03:42:22;;;;;;;2.30;1.00;;;9.20;99.90;;;;;;4995779;28;20715;-60
2022/01/30 03:44:50;;;;;;;1.30;1.00;;;9.20;99.90;;;;;;4995724;28;20215;-59
2022/01/30 03:47:17;;;;;;;1.27;0.97;;;9.30;99.90;;;;;;4995766;28;20286;-58
2022/01/30 03:49:43;;;;;;;2.57;1.20;;;9.20;99.90;;;;;;4995715;28;20243;-59
2022/01/30 03:52:10;;;;;;;2.10;1.23;;;9.10;99.90;;;;;;4995820;28;20602;-59
2022/01/30 03:54:37;;;;;;;1.90;1.07;;;9.10;99.90;;;;;;4995394;28;20211;-59
2022/01/30 03:57:05;;;;;;;1.90;0.97;;;9.00;99.90;;;;;;4995401;28;20204;-59
2022/01/30 03:59:31;;;;;;;1.90;0.90;;;8.90;99.90;;;;;;4995592;28;20208;-59
2022/01/30 04:01:59;;;;;;;1.27;0.87;;;8.90;99.90;;;;;;4995548;28;20267;-59
2022/01/30 04:04:26;;;;;;;2.73;1.23;;;8.90;99.90;;;;;;4995278;28;20258;-59
2022/01/30 04:06:56;;;;;;;2.40;1.20;;;9.00;99.90;;;;;;4995247;28;20219;-59
2022/01/30 04:09:23;;;;;;;1.43;1.10;;;9.00;99.90;;;;;;4995132;28;20746;-60
2022/01/30 04:11:50;;;;;;;1.10;0.97;;;9.10;99.90;;;;;;4995169;28;20243;-59
2022/01/30 04:14:17;;;;;;;2.23;1.30;;;9.00;99.90;;;;;;4995147;28;20262;-59
2022/01/30 04:16:44;;;;;;;3.23;1.30;;;9.10;99.90;;;;;;4995246;28;20207;-59
2022/01/30 04:19:13;;;;;;;2.17;1.30;;;9.20;99.90;;;;;;4995205;28;20214;-60
2022/01/30 04:21:40;;;;;;;2.17;1.10;;;9.10;99.90;;;;;;4994953;28;20227;-60
2022/01/30 04:24:07;;;;;;;1.90;1.33;;;9.10;99.90;;;;;;4994798;28;20215;-59
2022/01/30 04:26:34;;;;;;;2.07;1.00;;;9.20;99.90;;;;;;4994988;28;20223;-59
2022/01/30 04:29:01;;;;;;;3.07;1.50;;;9.20;99.90;;;;;;4994875;28;20207;-59
2022/01/30 04:31:28;;;;;;;2.63;1.13;;;9.20;99.90;;;;;;4995094;28;20234;-60
2022/01/30 04:33:55;;;;;;;1.73;1.30;;;9.20;99.90;;;;;;4994934;28;20262;-59
2022/01/30 04:36:29;;;;;;;3.97;1.40;;;9.10;99.90;;;;;;4994519;28;20204;-58
2022/01/30 04:39:03;;;;;;;3.57;1.80;;;9.10;99.90;;;;;;4994742;28;20702;-60
2022/01/30 04:52:48;;;;;;;3.67;1.40;;;9.10;99.90;;;;;;4994650;28;20586;-59
2022/01/30 04:58:15;;;;;;;3.07;1.33;;;9.00;99.90;;;;;;4939455;28;20194;-59
2022/01/30 05:00:59;;;;;;;3.67;1.47;;;9.00;99.90;;;;;;4995113;28;20208;-59
2022/01/30 05:06:10;;;;;;;4.03;1.70;;;8.90;99.90;;;;;;4991225;28;20200;-59
2022/01/30 05:08:39;;;;;;;3.53;1.77;;;8.80;99.90;;;;;;4994235;28;20673;-58
2022/01/30 05:13:37;;;;;;;4.33;1.70;;;8.70;99.90;;;;;;5024707;28;20230;-61
2022/01/30 05:16:05;;;;;;;4.47;1.60;;;8.60;99.90;;;;;;5032792;28;20202;-60
2022/01/30 05:18:32;;;;;;;3.57;1.50;;;8.50;99.90;;;;;;5033495;28;20203;-60
2022/01/30 05:20:59;;;;;;;5.53;2.23;;;8.50;99.90;;;;;;5033357;28;20209;-60
2022/01/30 05:23:26;;;;;;;8.07;2.37;;;8.50;99.90;;;;;;5033284;28;20231;-60
2022/01/30 05:25:55;;;;;;;6.67;2.30;;;8.40;99.90;;;;;;5033014;28;20206;-60
2022/01/30 05:28:24;;;;;;;6.10;2.17;;;8.30;99.90;;;;;;5033128;28;20296;-59
2022/01/30 05:30:51;;;;;;;4.90;2.37;;;8.20;99.90;;;;;;5033021;28;20591;-62
2022/01/30 05:33:18;;;;;;;4.50;2.43;;;8.10;99.90;;;;;;5033153;28;20230;-60
2022/01/30 05:35:46;;;;;;;6.20;2.00;;;8.20;99.90;;;;;;5032823;28;20205;-62
2022/01/30 05:38:13;;;;;;;4.43;2.07;;;8.10;99.90;;;;;;5033010;28;20309;-60
2022/01/30 05:40:41;;;;;;;5.87;2.30;;;8.20;99.90;;;;;;5032565;28;20661;-60
2022/01/30 05:43:09;;;;;;;6.03;2.30;;;8.20;99.90;;;;;;5032697;28;20230;-62
2022/01/30 05:45:40;;;;;;;6.23;2.10;;;7.90;99.90;;;;;;5032636;28;20228;-61
2022/01/30 05:48:11;;;;;;;7.40;2.23;;;8.10;99.90;;;;;;5032978;28;20225;-60
2022/01/30 05:50:38;;;;;;;4.77;1.87;;;8.20;99.90;;;;;;5032710;28;20591;-60
2022/01/30 05:53:05;;;;;;;6.47;1.87;;;8.30;99.90;;;;;;5032607;28;20280;-60
2022/01/30 05:55:32;;;;;;;5.00;1.80;;;8.40;99.90;;;;;;5032404;28;20233;-59
2022/01/30 05:57:59;;;;;;;3.73;1.97;;;8.50;99.90;;;;;;5032400;28;20213;-60
2022/01/30 06:00:27;;;;;;;3.73;1.83;;;8.60;99.90;;;;;;5032687;28;20271;-62
2022/01/30 06:02:55;;;;;;;5.63;2.27;;;8.60;99.90;;;;;;5032490;28;20235;-61
2022/01/30 06:05:23;;;;;;;7.27;2.53;;;8.60;99.90;;;;;;5032287;28;20210;-61
2022/01/30 06:07:53;;;;;;;6.43;2.23;;;8.40;99.90;;;;;;5032305;28;20280;-61
2022/01/30 06:10:21;;;;;;;7.63;2.60;;;8.30;99.90;;;;;;5032283;28;20233;-61
2022/01/30 06:12:48;;;;;;;7.40;2.87;;;8.20;99.90;;;;;;5032343;28;20234;-61
2022/01/30 06:15:15;;;;;;;5.80;2.77;;;8.10;99.90;;;;;;5032187;28;20206;-60
2022/01/30 06:17:44;;;;;;;5.73;2.57;;;8.00;99.90;;;;;;5032251;28;20229;-61
2022/01/30 06:20:12;;;;;;;7.67;2.27;;;8.00;99.90;;;;;;5032232;28;20251;-61
2022/01/30 06:22:39;;;;;;;6.40;2.20;;;8.00;99.90;;;;;;5032062;28;20235;-61
2022/01/30 06:25:07;;;;;;;11.30;2.60;;;8.00;99.90;;;;;;5031830;28;20202;-61
2022/01/30 06:27:34;;;;;;;5.97;2.40;;;8.00;99.90;;;;;;5032521;28;20226;-60
2022/01/30 06:30:00;;;;;;;4.77;2.40;;;8.00;99.90;;;;;;5032180;28;20202;-61
2022/01/30 06:32:27;;;;;;;9.17;3.57;;;7.90;99.90;;;;;;5031997;28;20229;-60
2022/01/30 06:34:55;;;;;;;5.03;2.90;;;7.80;99.90;;;;;;5031815;28;20264;-61
2022/01/30 06:37:22;;;;;;;11.53;2.90;;;7.70;99.90;;;;;;5031930;28;20276;-60
2022/01/30 06:39:49;;;;;;;6.20;2.20;;;7.60;99.90;;;;;;5032195;28;20263;-60
2022/01/30 06:42:16;;;;;;;7.50;2.67;;;7.60;99.90;;;;;;5031989;28;20226;-60
2022/01/30 06:44:44;;;;;;;7.67;3.03;;;7.50;99.90;;;;;;5031769;28;20213;-60
2022/01/30 06:47:12;;;;;;;7.27;2.47;;;7.50;99.90;;;;;;5032019;28;20232;-61
2022/01/30 06:49:38;;;;;;;6.07;2.20;;;7.60;99.90;;;;;;5031787;28;20695;-62
2022/01/30 06:52:09;;;;;;;8.43;2.50;;;7.60;99.90;;;;;;5035338;28;20313;-60
2022/01/30 06:54:37;;;;;;;7.30;2.53;;;7.60;99.90;;;;;;5035963;28;20298;-60
2022/01/30 06:57:05;;;;;;;7.13;2.40;;;7.70;99.90;;;;;;5036076;28;20296;-59
2022/01/30 06:59:32;;;;;;;12.83;3.00;;;7.80;99.90;;;;;;5035984;28;20210;-61
2022/01/30 07:01:59;;;;;;;9.10;3.07;;;7.90;99.90;;;;;;5035759;28;20276;-61
2022/01/30 07:04:25;;;;;;;6.27;2.63;;;8.00;99.90;;;;;;5035770;28;20207;-60
2022/01/30 07:06:52;;;;;;;9.40;3.10;;;8.10;99.90;;;;;;5035649;28;20210;-59
2022/01/30 07:09:20;;;;;;;9.50;2.63;;;8.20;99.90;;;;;;5035844;28;20279;-60
2022/01/30 07:11:47;;;;;;;6.50;2.60;;;8.10;99.90;;;;;;5035507;28;20744;-61
2022/01/30 07:14:13;;;;;;;7.87;2.30;;;8.10;99.90;;;;;;5035663;28;20674;-62
2022/01/30 07:16:40;;;;;;;8.40;2.47;;;8.10;99.90;;;;;;5035378;28;20839;-60
2022/01/30 07:19:07;;;;;;;9.50;2.30;;;8.00;99.90;;;;;;5035495;28;20673;-60
2022/01/30 07:21:33;;;;;;;8.60;2.50;;;8.00;99.90;;;;;;5035360;28;20748;-60
2022/01/30 07:24:00;;;;;;;5.03;1.80;;;8.00;99.90;;;;;;5035422;28;20221;-60
2022/01/30 07:26:28;;;;;;;8.10;2.30;;;7.90;99.90;;;;;;5035149;28;20739;-60
2022/01/30 07:28:55;;;;;;;6.93;2.37;;;8.00;99.90;;;;;;5035372;28;20762;-60
2022/01/30 07:31:21;;;;;;;7.97;2.50;;;7.90;99.90;;;;;;5035416;28;20206;-61
2022/01/30 07:33:48;;;;;;;8.70;2.60;;;7.90;99.90;;;;;;5035320;28;20732;-60
2022/01/30 07:36:15;;;;;;;8.43;3.03;;;8.00;99.90;;;;;;5034993;28;20206;-60
2022/01/30 07:38:42;;;;;;;7.90;2.33;;;8.00;99.90;;;;;;5035401;28;20248;-60
2022/01/30 07:41:09;;;;;;;8.47;2.13;;;8.00;99.90;;;;;;5035348;28;20316;-60
2022/01/30 07:43:37;;;;;;;7.63;3.57;;;8.00;99.90;;;;;;5035087;28;20217;-60
2022/01/30 07:46:04;;;;;;;9.40;2.60;;;7.90;99.90;;;;;;5035170;28;20214;-60
2022/01/30 07:48:31;;;;;;;8.37;4.00;;;7.90;99.90;;;;;;5034872;28;20316;-59
2022/01/30 07:50:58;;;;;;;5.03;2.00;;;8.10;99.90;;;;;;5035124;28;20622;-60
2022/01/30 07:53:24;;;;;;;7.10;2.03;;;8.10;99.90;;;;;;5034900;28;20226;-62
2022/01/30 07:55:52;;;;;;;8.63;2.70;;;8.00;99.90;;;;;;5034525;28;20210;-60
2022/01/30 07:58:19;;;;;;;6.97;2.23;;;8.00;99.90;;;;;;5034967;28;20203;-60
2022/01/30 08:00:47;;;;;;;8.47;2.70;;;8.00;99.90;;;;;;5034685;28;20284;-60
2022/01/30 08:03:13;;;;;;;10.37;2.33;;;8.10;99.90;;;;;;5034546;28;20230;-59
2022/01/30 08:05:41;;;;;;;7.33;2.23;;;8.10;99.90;;;;;;5035580;28;20557;-60
2022/01/30 08:08:07;;;;;;;7.70;2.40;;;8.00;99.90;;;;;;5035374;28;20635;-60
2022/01/30 08:10:35;;;;;;;8.47;2.77;;;8.00;99.90;;;;;;5034980;28;20206;-60
2022/01/30 08:13:02;;;;;;;12.53;2.70;;;8.00;99.90;;;;;;5034806;28;20595;-59
2022/01/30 08:15:29;;;;;;;9.30;2.37;;;8.20;99.90;;;;;;5034341;28;20214;-62
2022/01/30 08:17:57;;;;;;;8.93;2.60;;;8.30;99.90;;;;;;5035006;28;20264;-61
2022/01/30 08:20:26;;;;;;;10.37;2.73;;;8.40;99.90;;;;;;5034569;28;20244;-62
2022/01/30 08:22:54;;;;;;;11.63;2.67;;;8.40;99.90;;;;;;5034301;28;20272;-62
2022/01/30 08:25:23;;;;;;;10.23;3.17;;;8.50;99.90;;;;;;5034132;28;20221;-59
2022/01/30 08:27:52;;;;;;;7.60;3.00;;;8.50;99.90;;;;;;5033881;28;20234;-59
2022/01/30 08:30:19;;;;;;;10.47;2.63;;;8.30;99.90;;;;;;5034500;28;20210;-60
2022/01/30 08:32:48;;;;;;;10.27;2.93;;;8.10;99.90;;;;;;5034509;28;20234;-59
2022/01/30 08:35:18;;;;;;;7.30;2.70;;;8.00;99.90;;;;;;5034038;28;20210;-61
2022/01/30 08:37:45;;;;;;;7.40;2.50;;;8.00;99.90;;;;;;5034287;28;20217;-60
2022/01/30 08:40:15;;;;;;;9.23;3.03;;;7.90;99.90;;;;;;5033829;28;20624;-60
2022/01/30 08:42:42;;;;;;;7.27;2.67;;;8.10;99.90;;;;;;5034169;28;20329;-60
2022/01/30 08:45:10;;;;;;;7.57;2.90;;;8.30;99.90;;;;;;5033776;28;20207;-62
2022/01/30 08:47:37;;;;;;;10.47;2.73;;;8.70;99.90;;;;;;5033595;28;20693;-61
2022/01/30 08:50:05;;;;;;;9.60;2.70;;;9.10;99.90;;;;;;5033899;28;20206;-60
2022/01/30 08:52:33;;;;;;;10.13;3.10;;;9.30;99.90;;;;;;5033786;28;20237;-60
2022/01/30 08:54:59;;;;;;;6.77;2.40;;;9.30;99.90;;;;;;5033499;28;20206;-60
2022/01/30 08:57:26;;;;;;;7.23;2.43;;;9.40;99.90;;;;;;5034057;28;20252;-60
2022/01/30 08:59:54;;;;;;;11.57;2.83;;;9.50;99.90;;;;;;5033756;28;20248;-60
2022/01/30 09:02:22;;;;;;;9.37;2.30;;;9.40;99.90;;;;;;5033646;28;20226;-60
2022/01/30 09:04:49;;;;;;;8.23;2.77;;;9.40;99.90;;;;;;5033452;28;20206;-59
2022/01/30 09:07:16;;;;;;;10.60;2.93;;;9.40;99.90;;;;;;5033476;28;20206;-60
2022/01/30 09:09:44;;;;;;;8.30;2.40;;;9.40;99.90;;;;;;5033712;28;20222;-61
2022/01/30 09:12:11;;;;;;;10.43;2.33;;;9.30;99.90;;;;;;5033556;28;20657;-60
2022/01/30 09:14:39;;;;;;;6.83;1.97;;;9.20;99.90;;;;;;5032702;28;20577;-61
2022/01/30 09:17:12;;;;;;;9.30;2.47;;;9.00;99.90;;;;;;5033576;28;20213;-60
2022/01/30 09:19:39;;;;;;;9.20;2.40;;;8.80;99.90;;;;;;5033384;28;20213;-60
2022/01/30 09:22:05;;;;;;;9.03;2.27;;;8.80;99.90;;;;;;5033049;28;20234;-60
2022/01/30 09:24:32;;;;;;;7.53;2.50;;;8.60;99.90;;;;;;5033409;28;20202;-59
2022/01/30 09:27:00;;;;;;;7.27;1.90;;;8.50;99.90;;;;;;5033285;28;20211;-61
2022/01/30 09:29:28;;;;;;;6.53;2.20;;;8.30;99.90;;;;;;5033168;28;20226;-60
2022/01/30 09:31:55;;;;;;;11.70;2.27;;;8.10;99.90;;;;;;5033341;28;20222;-60
2022/01/30 09:34:22;;;;;;;9.47;2.70;;;8.00;99.90;;;;;;5032944;28;20202;-59
2022/01/30 09:36:48;;;;;;;11.93;2.40;;;8.00;99.90;;;;;;5032639;28;20268;-60
2022/01/30 09:39:15;;;;;;;14.27;4.20;;;8.10;99.90;;;;;;5033159;28;20206;-60
2022/01/30 09:41:43;;;;;;;13.27;2.60;;;8.20;99.90;;;;;;5032870;28;20226;-60
2022/01/30 09:44:12;;;;;;;6.63;1.80;;;8.20;99.90;;;;;;5032687;28;20206;-60
2022/01/30 09:46:41;;;;;;;13.27;2.93;;;8.30;99.90;;;;;;5032598;28;20264;-60
2022/01/30 09:49:09;;;;;;;9.37;2.33;;;8.50;99.90;;;;;;5032288;28;20222;-60
2022/01/30 09:51:38;;;;;;;6.97;2.67;;;8.70;99.90;;;;;;5032536;28;20230;-60
2022/01/30 09:54:06;;;;;;;11.83;2.57;;;8.90;99.90;;;;;;5032996;28;20210;-60
2022/01/30 09:56:33;;;;;;;8.90;2.40;;;9.00;99.90;;;;;;5032392;28;20302;-60
2022/01/30 09:59:00;;;;;;;10.70;2.83;;;9.50;99.90;;;;;;5032372;28;20197;-61
2022/01/30 10:01:32;;;;;;;8.07;2.77;;;9.80;99.90;;;;;;5032263;28;20226;-60
2022/01/30 10:03:59;;;;;;;4.73;2.27;;;10.10;99.90;;;;;;5032700;28;20693;-60
2022/01/30 10:06:32;;;;;;;7.63;2.00;;;10.10;99.90;;;;;;5032430;28;20214;-60
2022/01/30 10:09:05;;;;;;;11.07;2.40;;;10.20;99.90;;;;;;5032410;28;20232;-60
2022/01/30 10:11:47;;;;;;;8.07;2.43;;;10.20;99.90;;;;;;5032239;28;20780;-61
2022/01/30 10:14:16;;;;;;;11.57;2.63;;;9.90;99.90;;;;;;5032230;28;20210;-61
2022/01/30 10:16:46;;;;;;;11.50;2.40;;;9.70;99.90;;;;;;5032285;28;20213;-61
2022/01/30 10:19:17;;;;;;;7.33;2.23;;;9.60;99.90;;;;;;5032195;28;20260;-62
2022/01/30 10:21:45;;;;;;;9.23;2.77;;;9.40;99.90;;;;;;5032234;28;20600;-61
2022/01/30 10:24:22;;;;;;;16.00;7.70;;;9.30;99.90;;;;;;5032355;28;20272;-60
2022/01/30 10:26:50;;;;;;;8.50;2.53;;;9.10;99.90;;;;;;5031486;28;20201;-60
2022/01/30 10:29:22;;;;;;;7.57;2.40;;;9.10;99.90;;;;;;5032227;28;20230;-60
2022/01/30 10:32:05;;;;;;;8.40;2.43;;;9.10;99.90;;;;;;5031993;28;20222;-60
2022/01/30 10:34:32;;;;;;;12.73;2.37;;;9.20;99.90;;;;;;5031781;28;20214;-59
2022/01/30 10:37:18;;;;;;;10.20;2.27;;;9.20;99.90;;;;;;5031711;28;20213;-61
2022/01/30 10:40:06;;;;;;;11.80;2.60;;;9.20;99.90;;;;;;5032085;28;20206;-68
2022/01/30 10:42:35;;;;;;;7.23;2.63;;;9.50;99.90;;;;;;5032081;28;20328;-69
2022/01/30 10:45:03;;;;;;;9.87;2.80;;;9.90;99.90;;;;;;5031584;28;20217;-68
2022/01/30 10:47:32;;;;;;;9.17;2.23;;;10.30;99.90;;;;;;5031708;28;20620;-60
2022/01/30 10:50:00;;;;;;;8.17;2.50;;;10.60;99.90;;;;;;5031952;28;20735;-61
2022/01/30 10:52:27;;;;;;;12.10;2.60;;;10.90;99.90;;;;;;5031988;28;20230;-61
2022/01/30 10:55:04;;;;;;;8.90;2.60;;;11.00;99.90;;;;;;5031674;28;20202;-61
2022/01/30 10:57:31;;;;;;;9.93;2.77;;;10.90;99.90;;;;;;5031728;28;20205;-61
2022/01/30 10:59:57;;;;;;;9.10;2.57;;;10.90;99.90;;;;;;5031886;28;20225;-61
2022/01/30 11:02:26;;;;;;;7.90;2.83;;;10.60;99.90;;;;;;5031837;28;20230;-61
2022/01/30 11:05:05;;;;;;;9.70;2.57;;;10.40;99.90;;;;;;5031675;28;20260;-61
2022/01/30 11:07:35;;;;;;;8.00;2.47;;;10.10;99.90;;;;;;5031729;28;20271;-61
2022/01/30 11:10:08;;;;;;;7.53;2.23;;;9.60;99.90;;;;;;5031663;28;20299;-61
2022/01/30 11:12:42;;;;;;;10.43;2.47;;;9.50;99.90;;;;;;5032070;28;20234;-61
2022/01/30 11:15:20;;;;;;;11.50;2.33;;;9.20;99.90;;;;;;5031595;28;20214;-61
2022/01/30 11:17:48;;;;;;;14.30;2.90;;;9.00;99.90;;;;;;5031544;28;20673;-61
2022/01/30 11:20:17;;;;;;;8.67;2.17;;;8.80;99.90;;;;;;5031588;28;20706;-61
2022/01/30 11:22:47;;;;;;;7.87;2.47;;;8.90;99.90;;;;;;5031313;28;20230;-61
2022/01/30 11:25:14;;;;;;;7.13;2.20;;;9.00;99.90;;;;;;5031575;28;20289;-61
2022/01/30 11:27:43;;;;;;;8.30;2.23;;;9.10;99.90;;;;;;5031577;28;20618;-63
2022/01/30 11:30:11;;;;;;;7.43;2.30;;;9.30;99.90;;;;;;5031791;28;20313;-64
2022/01/30 11:32:39;;;;;;;12.70;3.43;;;9.60;99.90;;;;;;5031806;28;20223;-62
2022/01/30 11:35:07;;;;;;;10.23;2.90;;;9.70;99.90;;;;;;5031524;28;20206;-62
2022/01/30 11:37:37;;;;;;;9.20;2.40;;;9.80;99.90;;;;;;5032270;28;20210;-62
2022/01/30 11:40:13;;;;;;;5.70;2.20;;;10.00;99.90;;;;;;5035441;28;20203;-62
2022/01/30 11:42:44;;;;;;;8.10;2.00;;;10.00;99.90;;;;;;5035440;28;20317;-62
2022/01/30 11:45:24;;;;;;;8.00;2.10;;;10.00;99.90;;;;;;5034974;28;20680;-62
2022/01/30 11:47:52;;;;;;;8.73;2.40;;;10.10;99.90;;;;;;5034938;28;20627;-62
2022/01/30 11:50:20;;;;;;;10.80;2.50;;;10.10;99.90;;;;;;5034887;28;20777;-62
2022/01/30 11:52:55;;;;;;;8.00;3.30;;;10.10;99.90;;;;;;5034897;28;20272;-62
2022/01/30 11:55:53;;;;;;;9.50;2.30;;;10.10;99.90;;;;;;5034750;28;20206;-62
2022/01/30 11:58:46;;;;;;;8.73;2.60;;;10.10;99.90;;;;;;5034724;28;20215;-62
2022/01/30 12:01:34;;;;;;;10.00;2.53;;;10.30;99.90;;;;;;5034687;28;20297;-62
2022/01/30 12:04:04;;;;;;;9.40;3.07;;;10.30;99.90;;;;;;5034979;28;20225;-62
2022/01/30 12:06:36;;;;;;;11.83;3.17;;;10.20;99.90;;;;;;5034338;28;20257;-62
2022/01/30 12:09:19;;;;;;;7.73;2.40;;;10.20;99.90;;;;;;5034694;28;20226;-62
2022/01/30 12:12:07;;;;;;;8.83;2.83;;;10.30;99.90;;;;;;5034481;28;20236;-62
2022/01/30 12:14:59;;;;;;;9.57;3.10;;;10.40;99.90;;;;;;5034637;28;20202;-62
2022/01/30 12:17:59;;;;;;;16.00;4.83;;;10.70;99.90;;;;;;5034702;28;20292;-62
2022/01/30 12:20:28;;;;;;;11.03;4.00;;;11.10;99.90;;;;;;5034456;28;20639;-62
2022/01/30 12:22:56;;;;;;;12.87;3.73;;;11.50;99.90;;;;;;5034541;28;20641;-63
2022/01/30 12:25:31;;;;;;;10.83;3.37;;;11.70;99.90;;;;;;5034195;28;20206;-62
2022/01/30 12:28:01;;;;;;;11.40;2.77;;;11.60;99.90;;;;;;5034741;28;20300;-62
2022/01/30 12:30:33;;;;;;;14.63;4.37;;;11.60;99.90;;;;;;5034885;28;20313;-62
2022/01/30 12:33:01;;;;;;;15.13;3.30;;;11.70;99.90;;;;;;5034823;28;20226;-61
2022/01/30 12:35:28;;;;;;;10.23;2.80;;;11.80;99.90;;;;;;5034066;28;20214;-62
2022/01/30 12:37:55;;;;;;;10.43;2.80;;;11.70;99.90;;;;;;5034202;28;20233;-62
2022/01/30 12:40:23;;;;;;;12.77;2.50;;;11.30;99.90;;;;;;5034278;28;20202;-62
2022/01/30 12:42:51;;;;;;;9.17;2.50;;;10.90;99.90;;;;;;5034207;28;20231;-60
2022/01/30 12:45:18;;;;;;;8.60;2.70;;;10.60;99.90;;;;;;5033979;28;20252;-61
2022/01/30 12:47:49;;;;;;;10.33;2.40;;;10.30;99.90;;;;;;5034235;28;20280;-62
2022/01/30 12:50:18;;;;;;;10.63;3.30;;;10.10;99.90;;;;;;5034058;28;20276;-60
2022/01/30 12:52:48;;;;;;;12.00;3.13;;;10.20;99.90;;;;;;5034156;28;20256;-63
2022/01/30 12:55:17;;;;;;;8.93;2.67;;;10.40;99.90;;;;;;5034034;28;20221;-62
2022/01/30 12:57:45;;;;;;;11.63;3.00;;;10.70;99.90;;;;;;5033984;28;20236;-63
2022/01/30 13:00:16;;;;;;;8.80;2.87;;;11.10;99.90;;;;;;5033703;28;20666;-63
2022/01/30 13:02:58;;;;;;;12.67;3.00;;;11.30;99.90;;;;;;5033609;28;20729;-61
2022/01/30 13:05:26;;;;;;;10.57;2.67;;;11.20;99.90;;;;;;5033760;28;20252;-64
2022/01/30 13:07:53;;;;;;;11.10;2.90;;;11.20;99.90;;;;;;5033975;28;20249;-63
2022/01/30 13:10:21;;;;;;;9.07;2.60;;;11.10;99.90;;;;;;5033540;28;20672;-62
2022/01/30 13:12:48;;;;;;;10.17;3.57;;;11.10;99.90;;;;;;5033765;28;20658;-63
2022/01/30 13:15:19;;;;;;;9.50;3.90;;;11.10;99.90;;;;;;5033228;28;20280;-62
2022/01/30 13:17:47;;;;;;;8.67;2.90;;;11.10;99.90;;;;;;5033399;28;20662;-62
2022/01/30 13:20:14;;;;;;;13.13;6.77;;;11.10;99.90;;;;;;5033529;28;20202;-62
2022/01/30 13:22:43;;;;;;;7.40;2.10;;;11.30;99.90;;;;;;5033267;28;20261;-61
2022/01/30 13:25:12;;;;;;;6.60;2.27;;;11.50;99.90;;;;;;5033068;28;20221;-62
2022/01/30 13:27:40;;;;;;;9.50;3.10;;;11.50;99.20;;;;;;5033086;28;20202;-62
2022/01/30 13:30:08;;;;;;;6.77;2.33;;;11.50;98.90;;;;;;5033056;28;20226;-62
2022/01/30 13:32:41;;;;;;;8.80;2.30;;;11.60;99.00;;;;;;5033013;28;20644;-61
2022/01/30 13:35:12;;;;;;;7.17;2.30;;;11.70;98.80;;;;;;5033203;28;20635;-61
2022/01/30 13:37:39;;;;;;;9.70;2.30;;;11.70;98.70;;;;;;5032857;28;20206;-61
2022/01/30 13:40:15;;;;;;;9.33;2.37;;;11.70;98.40;;;;;;5032786;28;20198;-62